Spike Africa — WDF4869 — position and weather

sailwx.info

Track history (hours):
 
Tides and Currents Weather Stations Pressure Air Temp Water Temp Dewpoint Dewpoint Depression Visibility Wind Speed Wind Dir Waves Ship Positions

Spike Africa

Owner: Schooners North, Friday harbor, WA. More information available from US FCC via Universal Licensing System and Coast Guard Vessel Documentation Center.

Last reported at 2017-Nov-18 19:01 UTC. Time now 2017-Nov-18 19:15 UTC.
Position N 29°50' W 092°18'.

Length 27 m.

Type: Sailing vessel. MMSI: 366566000.

Date/timePositionNaut miles runAvg speedWind from/ knotsBaromVisibWave heightAir tempDewpointWater temp
2017-Nov-18 19:01N 29°50' W 092°18'41 4.8
2017-Nov-18 10:26N 29°56' W 093°04'2 4.5
2017-Nov-18 09:58N 29°56' W 093°07'2 3.5
2017-Nov-18 09:27N 29°56' W 093°09'2 4.2
2017-Nov-18 09:00N 29°57' W 093°11'3 5.2
2017-Nov-18 08:30N 29°59' W 093°13'2 3.3
2017-Nov-18 08:01N 30°01' W 093°14'2 3.1
2017-Nov-18 07:31N 30°02' W 093°15'2 3.0
2017-Nov-18 07:00N 30°03' W 093°16'2 4.0
2017-Nov-18 06:30N 30°05' W 093°17'1 2.2
2017-Nov-18 06:00N 30°05' W 093°18'1 2.0
2017-Nov-18 05:30N 30°06' W 093°19'0 0.2
2017-Nov-18 05:00N 30°06' W 093°19'0 0.0
2017-Nov-18 04:30N 30°06' W 093°19'0 0.0
2017-Nov-18 04:00N 30°06' W 093°19'0 0.0
2017-Nov-18 03:31N 30°06' W 093°19'0 0.0
2017-Nov-18 03:00N 30°06' W 093°19'0 0.0
2017-Nov-18 02:30N 30°06' W 093°19'0 0.0
2017-Nov-18 02:00N 30°06' W 093°19'0 0.0
2017-Nov-18 01:30N 30°06' W 093°19'0 0.0
2017-Nov-18 01:01N 30°06' W 093°19'0 0.0
2017-Nov-18 00:31N 30°06' W 093°19'0 0.1
2017-Nov-18 00:00N 30°06' W 093°19'0 0.1
2017-Nov-17 23:30N 30°06' W 093°19'0 0.0
2017-Nov-17 23:01N 30°06' W 093°19'0 0.0
2017-Nov-17 22:30N 30°06' W 093°19'0 0.0
2017-Nov-17 22:00N 30°06' W 093°19'0 0.0
2017-Nov-17 21:30N 30°06' W 093°19'0 0.0
2017-Nov-17 21:00N 30°06' W 093°19'0 0.0
2017-Nov-17 20:31N 30°06' W 093°19'0 0.0
2017-Nov-17 20:01N 30°06' W 093°19'0 0.0
2017-Nov-17 19:31N 30°06' W 093°19'0 0.0
2017-Nov-17 19:00N 30°06' W 093°19'0 0.0
2017-Nov-17 18:30N 30°06' W 093°19'0 0.0
2017-Nov-17 18:00N 30°06' W 093°19'0 0.0
2017-Nov-17 17:30N 30°06' W 093°19'0 0.0
2017-Nov-17 17:01N 30°06' W 093°19'0 0.0
2017-Nov-17 16:31N 30°06' W 093°19'0 0.0
2017-Nov-17 16:01N 30°06' W 093°19'0 0.0
2017-Nov-17 15:31N 30°06' W 093°19'0 0.0
2017-Nov-17 15:00N 30°06' W 093°19'0 0.0
2017-Nov-17 14:30N 30°06' W 093°19'0 0.0
2017-Nov-17 14:00N 30°06' W 093°19'0 0.0
2017-Nov-17 13:30N 30°06' W 093°19'0 0.0
2017-Nov-17 13:00N 30°06' W 093°19'0 0.0
2017-Nov-17 12:31N 30°06' W 093°19'0 0.0
2017-Nov-17 12:01N 30°06' W 093°19'0 0.0
2017-Nov-17 11:30N 30°06' W 093°19'0 0.0
2017-Nov-17 11:00N 30°06' W 093°19'0 0.0
2017-Nov-17 10:31N 30°06' W 093°19'0 0.0
2017-Nov-17 10:01N 30°06' W 093°19'0 0.0
2017-Nov-17 09:30N 30°06' W 093°19'0 0.0
2017-Nov-17 09:00N 30°06' W 093°19'0 0.0
2017-Nov-17 08:31N 30°06' W 093°19'0 0.0
2017-Nov-17 08:00N 30°06' W 093°19'0 0.0
2017-Nov-17 07:30N 30°06' W 093°19'0 0.0
2017-Nov-17 07:01N 30°06' W 093°19'0 0.0
2017-Nov-17 06:30N 30°06' W 093°19'0 0.0
2017-Nov-17 06:01N 30°06' W 093°19'0 0.0
2017-Nov-17 05:30N 30°06' W 093°19'0 0.0
2017-Nov-17 05:00N 30°06' W 093°19'0 0.0
2017-Nov-17 04:30N 30°06' W 093°19'0 0.0
2017-Nov-17 04:01N 30°06' W 093°19'0 0.0
2017-Nov-17 03:30N 30°06' W 093°19'0 0.0
2017-Nov-17 03:00N 30°06' W 093°19'0 0.0
2017-Nov-17 02:31N 30°06' W 093°19'0 0.0
2017-Nov-17 02:01N 30°06' W 093°19'0 0.0
2017-Nov-17 01:30N 30°06' W 093°19'0 0.0
2017-Nov-17 01:01N 30°06' W 093°19'0 0.0
2017-Nov-17 00:30N 30°06' W 093°19'0 0.0
2017-Nov-17 00:00N 30°06' W 093°19'0 0.0
2017-Nov-16 23:30N 30°06' W 093°19'0 0.2
2017-Nov-16 23:00N 30°06' W 093°19'2 3.4
2017-Nov-16 22:31N 30°05' W 093°20'1 2.7
2017-Nov-16 22:00N 30°04' W 093°21'1 2.4
2017-Nov-16 21:31N 30°05' W 093°20'1 1.5
2017-Nov-16 21:00N 30°05' W 093°20'0 0.0
2017-Nov-16 20:31N 30°05' W 093°20'0 0.0
2017-Nov-16 20:00N 30°05' W 093°20'0 0.0
2017-Nov-16 19:30N 30°05' W 093°20'1 1.5
2017-Nov-16 19:00N 30°05' W 093°20'2 4.3
2017-Nov-16 18:30N 30°04' W 093°22'2 3.9
2017-Nov-16 18:00N 30°04' W 093°25'2 3.9
2017-Nov-16 17:30N 30°04' W 093°27'3 5.6
2017-Nov-16 16:59N 30°04' W 093°30'11 2.6
2017-Nov-16 12:41N 30°03' W 093°43'0 0.0
2017-Nov-16 12:26N 30°03' W 093°43'0 0.0
2017-Nov-16 11:58N 30°03' W 093°43'0 0.0
2017-Nov-16 10:57N 30°03' W 093°43'68 3.6
2017-Nov-15 16:11N 29°29' W 094°52'2 9.1
2017-Nov-15 15:58N 29°31' W 094°53'4 8.2
2017-Nov-15 15:31N 29°34' W 094°55'4 7.7
2017-Nov-15 14:58N 29°37' W 094°58'3 7.6
2017-Nov-15 14:30N 29°41' W 094°59'8 2.0
2017-Nov-15 10:35N 29°47' W 095°04'0 1.2
2017-Nov-15 10:22N 29°47' W 095°04'2 0.7
2017-Nov-15 07:45N 29°46' W 095°05'2 2.3
2017-Nov-15 06:51N 29°47' W 095°04'0 0.1
2017-Nov-15 06:19N 29°47' W 095°04'0 0.4
2017-Nov-15 05:47N 29°47' W 095°04'3 3.0
2017-Nov-15 04:38N 29°44' W 095°03'1 4.5
2017-Nov-15 04:24N 29°44' W 095°02'2 4.2
2017-Nov-15 03:59N 29°42' W 095°01'2 4.6
2017-Nov-15 03:29N 29°41' W 094°59'3 5.2
2017-Nov-15 02:57N 29°38' W 094°58'2 5.1
2017-Nov-15 02:30N 29°36' W 094°57'3 5.5
2017-Nov-15 01:59N 29°34' W 094°55'88 3.5
2017-Nov-14 00:35N 30°05' W 093°20'1 5.2
2017-Nov-14 00:21N 30°04' W 093°21'1 0.7
2017-Nov-13 22:37N 30°05' W 093°20'70 3.3
2017-Nov-13 01:42N 29°49' W 092°01'1 4.8
2017-Nov-13 01:28N 29°50' W 091°60'  
2017-Nov-09 08:38N 29°50' W 091°59'1 4.2
2017-Nov-09 08:30N 29°50' W 091°59'2 4.1
2017-Nov-09 08:00N 29°49' W 092°02'2 3.6
2017-Nov-09 07:31N 29°49' W 092°04'2 4.7
2017-Nov-09 07:00N 29°48' W 092°06'2 4.5
2017-Nov-09 06:31N 29°47' W 092°09'2 4.1
2017-Nov-09 06:00N 29°47' W 092°11'2 3.5
2017-Nov-09 05:31N 29°47' W 092°13'2 4.2
2017-Nov-09 05:01N 29°48' W 092°15'2 4.4
2017-Nov-09 04:30N 29°49' W 092°17'1 2.9
2017-Nov-09 04:00N 29°50' W 092°18'2 3.4
2017-Nov-09 03:30N 29°51' W 092°20'  
Track history (hours):
 
Tides and Currents Weather Stations Pressure Air Temp Water Temp Dewpoint Dewpoint Depression Visibility Wind Speed Wind Dir Waves Ship Positions

Spike Africa

Owner: Schooners North, Friday harbor, WA. More information available from US FCC via Universal Licensing System and Coast Guard Vessel Documentation Center.

Last reported at 2017-Nov-18 19:01 UTC. Time now 2017-Nov-18 19:15 UTC.
Position N 29°50' W 092°18'.

Length 27 m.

Type: Sailing vessel. MMSI: 366566000.

Date/timePositionNaut miles runAvg speedWind from/ knotsBaromVisibWave heightAir tempDewpointWater temp
2017-Nov-18 19:01N 29°50' W 092°18'41 4.8
2017-Nov-18 10:26N 29°56' W 093°04'2 4.5
2017-Nov-18 09:58N 29°56' W 093°07'2 3.5
2017-Nov-18 09:27N 29°56' W 093°09'2 4.2
2017-Nov-18 09:00N 29°57' W 093°11'3 5.2
2017-Nov-18 08:30N 29°59' W 093°13'2 3.3
2017-Nov-18 08:01N 30°01' W 093°14'2 3.1
2017-Nov-18 07:31N 30°02' W 093°15'2 3.0
2017-Nov-18 07:00N 30°03' W 093°16'2 4.0
2017-Nov-18 06:30N 30°05' W 093°17'1 2.2
2017-Nov-18 06:00N 30°05' W 093°18'1 2.0
2017-Nov-18 05:30N 30°06' W 093°19'0 0.2
2017-Nov-18 05:00N 30°06' W 093°19'0 0.0
2017-Nov-18 04:30N 30°06' W 093°19'0 0.0
2017-Nov-18 04:00N 30°06' W 093°19'0 0.0
2017-Nov-18 03:31N 30°06' W 093°19'0 0.0
2017-Nov-18 03:00N 30°06' W 093°19'0 0.0
2017-Nov-18 02:30N 30°06' W 093°19'0 0.0
2017-Nov-18 02:00N 30°06' W 093°19'0 0.0
2017-Nov-18 01:30N 30°06' W 093°19'0 0.0
2017-Nov-18 01:01N 30°06' W 093°19'0 0.0
2017-Nov-18 00:31N 30°06' W 093°19'0 0.1
2017-Nov-18 00:00N 30°06' W 093°19'0 0.1
2017-Nov-17 23:30N 30°06' W 093°19'0 0.0
2017-Nov-17 23:01N 30°06' W 093°19'0 0.0
2017-Nov-17 22:30N 30°06' W 093°19'0 0.0
2017-Nov-17 22:00N 30°06' W 093°19'0 0.0
2017-Nov-17 21:30N 30°06' W 093°19'0 0.0
2017-Nov-17 21:00N 30°06' W 093°19'0 0.0
2017-Nov-17 20:31N 30°06' W 093°19'0 0.0
2017-Nov-17 20:01N 30°06' W 093°19'0 0.0
2017-Nov-17 19:31N 30°06' W 093°19'0 0.0
2017-Nov-17 19:00N 30°06' W 093°19'0 0.0
2017-Nov-17 18:30N 30°06' W 093°19'0 0.0
2017-Nov-17 18:00N 30°06' W 093°19'0 0.0
2017-Nov-17 17:30N 30°06' W 093°19'0 0.0
2017-Nov-17 17:01N 30°06' W 093°19'0 0.0
2017-Nov-17 16:31N 30°06' W 093°19'0 0.0
2017-Nov-17 16:01N 30°06' W 093°19'0 0.0
2017-Nov-17 15:31N 30°06' W 093°19'0 0.0
2017-Nov-17 15:00N 30°06' W 093°19'0 0.0
2017-Nov-17 14:30N 30°06' W 093°19'0 0.0
2017-Nov-17 14:00N 30°06' W 093°19'0 0.0
2017-Nov-17 13:30N 30°06' W 093°19'0 0.0
2017-Nov-17 13:00N 30°06' W 093°19'0 0.0
2017-Nov-17 12:31N 30°06' W 093°19'0 0.0
2017-Nov-17 12:01N 30°06' W 093°19'0 0.0
2017-Nov-17 11:30N 30°06' W 093°19'0 0.0
2017-Nov-17 11:00N 30°06' W 093°19'0 0.0
2017-Nov-17 10:31N 30°06' W 093°19'0 0.0
2017-Nov-17 10:01N 30°06' W 093°19'0 0.0
2017-Nov-17 09:30N 30°06' W 093°19'0 0.0
2017-Nov-17 09:00N 30°06' W 093°19'0 0.0
2017-Nov-17 08:31N 30°06' W 093°19'0 0.0
2017-Nov-17 08:00N 30°06' W 093°19'0 0.0
2017-Nov-17 07:30N 30°06' W 093°19'0 0.0
2017-Nov-17 07:01N 30°06' W 093°19'0 0.0
2017-Nov-17 06:30N 30°06' W 093°19'0 0.0
2017-Nov-17 06:01N 30°06' W 093°19'0 0.0
2017-Nov-17 05:30N 30°06' W 093°19'0 0.0
2017-Nov-17 05:00N 30°06' W 093°19'0 0.0
2017-Nov-17 04:30N 30°06' W 093°19'0 0.0
2017-Nov-17 04:01N 30°06' W 093°19'0 0.0
2017-Nov-17 03:30N 30°06' W 093°19'0 0.0
2017-Nov-17 03:00N 30°06' W 093°19'0 0.0
2017-Nov-17 02:31N 30°06' W 093°19'0 0.0
2017-Nov-17 02:01N 30°06' W 093°19'0 0.0
2017-Nov-17 01:30N 30°06' W 093°19'0 0.0
2017-Nov-17 01:01N 30°06' W 093°19'0 0.0
2017-Nov-17 00:30N 30°06' W 093°19'0 0.0
2017-Nov-17 00:00N 30°06' W 093°19'0 0.0
2017-Nov-16 23:30N 30°06' W 093°19'0 0.2
2017-Nov-16 23:00N 30°06' W 093°19'2 3.4
2017-Nov-16 22:31N 30°05' W 093°20'1 2.7
2017-Nov-16 22:00N 30°04' W 093°21'1 2.4
2017-Nov-16 21:31N 30°05' W 093°20'1 1.5
2017-Nov-16 21:00N 30°05' W 093°20'0 0.0
2017-Nov-16 20:31N 30°05' W 093°20'0 0.0
2017-Nov-16 20:00N 30°05' W 093°20'0 0.0
2017-Nov-16 19:30N 30°05' W 093°20'1 1.5
2017-Nov-16 19:00N 30°05' W 093°20'2 4.3
2017-Nov-16 18:30N 30°04' W 093°22'2 3.9
2017-Nov-16 18:00N 30°04' W 093°25'2 3.9
2017-Nov-16 17:30N 30°04' W 093°27'3 5.6
2017-Nov-16 16:59N 30°04' W 093°30'11 2.6
2017-Nov-16 12:41N 30°03' W 093°43'0 0.0
2017-Nov-16 12:26N 30°03' W 093°43'0 0.0
2017-Nov-16 11:58N 30°03' W 093°43'0 0.0
2017-Nov-16 10:57N 30°03' W 093°43'68 3.6
2017-Nov-15 16:11N 29°29' W 094°52'2 9.1
2017-Nov-15 15:58N 29°31' W 094°53'4 8.2
2017-Nov-15 15:31N 29°34' W 094°55'4 7.7
2017-Nov-15 14:58N 29°37' W 094°58'3 7.6
2017-Nov-15 14:30N 29°41' W 094°59'8 2.0
2017-Nov-15 10:35N 29°47' W 095°04'0 1.2
2017-Nov-15 10:22N 29°47' W 095°04'2 0.7
2017-Nov-15 07:45N 29°46' W 095°05'2 2.3
2017-Nov-15 06:51N 29°47' W 095°04'0 0.1
2017-Nov-15 06:19N 29°47' W 095°04'0 0.4
2017-Nov-15 05:47N 29°47' W 095°04'3 3.0
2017-Nov-15 04:38N 29°44' W 095°03'1 4.5
2017-Nov-15 04:24N 29°44' W 095°02'2 4.2
2017-Nov-15 03:59N 29°42' W 095°01'2 4.6
2017-Nov-15 03:29N 29°41' W 094°59'3 5.2
2017-Nov-15 02:57N 29°38' W 094°58'2 5.1
2017-Nov-15 02:30N 29°36' W 094°57'3 5.5
2017-Nov-15 01:59N 29°34' W 094°55'88 3.5
2017-Nov-14 00:35N 30°05' W 093°20'1 5.2
2017-Nov-14 00:21N 30°04' W 093°21'1 0.7
2017-Nov-13 22:37N 30°05' W 093°20'70 3.3
2017-Nov-13 01:42N 29°49' W 092°01'1 4.8
2017-Nov-13 01:28N 29°50' W 091°60'  
2017-Nov-09 08:38N 29°50' W 091°59'1 4.2
2017-Nov-09 08:30N 29°50' W 091°59'2 4.1
2017-Nov-09 08:00N 29°49' W 092°02'2 3.6
2017-Nov-09 07:31N 29°49' W 092°04'2 4.7
2017-Nov-09 07:00N 29°48' W 092°06'2 4.5
2017-Nov-09 06:31N 29°47' W 092°09'2 4.1
2017-Nov-09 06:00N 29°47' W 092°11'2 3.5
2017-Nov-09 05:31N 29°47' W 092°13'2 4.2
2017-Nov-09 05:01N 29°48' W 092°15'2 4.4
2017-Nov-09 04:30N 29°49' W 092°17'1 2.9
2017-Nov-09 04:00N 29°50' W 092°18'2 3.4
2017-Nov-09 03:30N 29°51' W 092°20'  

Dump ship's entire track history